Current Weather at September 9, 2019 7:02

Temp: 20.72 °C

Temp: 69.3 °F

Humidity: 73.89%

Pressure: 1005.6 mb


Time: 2019-09-28 07:02:21 Temperature: 20.72 °C Temperature: 69.3 °F Humidity: 73.89% Pressure: 1005.6 mb
Time: 2019-09-28 07:01:20 Temperature: 20.69 °C Temperature: 69.24 °F Humidity: 74.80% Pressure: 1005.5 mb
Time: 2019-09-28 07:00:18 Temperature: 20.66 °C Temperature: 69.19 °F Humidity: 74.57% Pressure: 1005.4 mb
Time: 2019-09-28 06:59:16 Temperature: 20.63 °C Temperature: 69.13 °F Humidity: 74.22% Pressure: 1005.4 mb
Time: 2019-09-28 06:58:15 Temperature: 20.61 °C Temperature: 69.1 °F Humidity: 74.49% Pressure: 1005.3 mb
Time: 2019-09-28 06:57:13 Temperature: 20.59 °C Temperature: 69.06 °F Humidity: 74.09% Pressure: 1005.3 mb
Time: 2019-09-28 06:56:12 Temperature: 20.57 °C Temperature: 69.03 °F Humidity: 74.55% Pressure: 1005.2 mb
Time: 2019-09-28 06:55:10 Temperature: 20.54 °C Temperature: 68.97 °F Humidity: 74.41% Pressure: 1005.3 mb
Time: 2019-09-28 06:54:09 Temperature: 20.52 °C Temperature: 68.94 °F Humidity: 74.48% Pressure: 1005.2 mb
Time: 2019-09-28 06:53:07 Temperature: 20.50 °C Temperature: 68.9 °F Humidity: 74.75% Pressure: 1005.2 mb
Time: 2019-09-28 06:52:06 Temperature: 20.48 °C Temperature: 68.86 °F Humidity: 74.62% Pressure: 1005.1 mb
Time: 2019-09-28 06:51:04 Temperature: 20.46 °C Temperature: 68.83 °F Humidity: 75.12% Pressure: 1005.1 mb
Time: 2019-09-28 06:50:03 Temperature: 20.44 °C Temperature: 68.79 °F Humidity: 75.37% Pressure: 1005.2 mb
Time: 2019-09-28 06:49:01 Temperature: 20.44 °C Temperature: 68.79 °F Humidity: 74.57% Pressure: 1005.3 mb
Time: 2019-09-28 06:48:00 Temperature: 20.42 °C Temperature: 68.76 °F Humidity: 74.75% Pressure: 1005.3 mb
Time: 2019-09-28 06:46:58 Temperature: 20.41 °C Temperature: 68.74 °F Humidity: 74.42% Pressure: 1005.3 mb
Time: 2019-09-28 06:45:57 Temperature: 20.40 °C Temperature: 68.72 °F Humidity: 74.48% Pressure: 1005.3 mb
Time: 2019-09-28 06:44:55 Temperature: 20.40 °C Temperature: 68.72 °F Humidity: 74.45% Pressure: 1005.4 mb
Time: 2019-09-28 06:43:54 Temperature: 20.38 °C Temperature: 68.68 °F Humidity: 74.90% Pressure: 1005.4 mb
Time: 2019-09-28 06:42:52 Temperature: 20.37 °C Temperature: 68.67 °F Humidity: 74.44% Pressure: 1005.5 mb